sensor_id;sensor_type;location;lat;lon;timestamp;pressure;altitude;pressure_sealevel;temperature;humidity
37972;BME280;23794;48.234;8.344;2023-05-01T00:01:50;94210.94;;;8.22;72.05
37972;BME280;23794;48.234;8.344;2023-05-01T00:04:17;94211.72;;;8.19;72.43
37972;BME280;23794;48.234;8.344;2023-05-01T00:06:44;94212.50;;;8.27;71.24
37972;BME280;23794;48.234;8.344;2023-05-01T00:09:11;94205.50;;;8.29;71.88
37972;BME280;23794;48.234;8.344;2023-05-01T00:11:38;94202.78;;;8.29;72.36
37972;BME280;23794;48.234;8.344;2023-05-01T00:14:05;94198.09;;;8.19;72.58
37972;BME280;23794;48.234;8.344;2023-05-01T00:16:31;94196.94;;;8.24;72.60
37972;BME280;23794;48.234;8.344;2023-05-01T00:18:58;94195.78;;;8.25;72.28
37972;BME280;23794;48.234;8.344;2023-05-01T00:21:25;94187.94;;;8.19;72.24
37972;BME280;23794;48.234;8.344;2023-05-01T00:23:53;94189.13;;;8.26;71.88
37972;BME280;23794;48.234;8.344;2023-05-01T00:26:21;94179.38;;;8.21;71.59
37972;BME280;23794;48.234;8.344;2023-05-01T00:28:48;94184.03;;;8.17;71.76
37972;BME280;23794;48.234;8.344;2023-05-01T00:31:15;94185.19;;;8.16;71.20
37972;BME280;23794;48.234;8.344;2023-05-01T00:33:43;94168.47;;;8.17;72.03
37972;BME280;23794;48.234;8.344;2023-05-01T00:36:10;94172.72;;;8.11;72.33
37972;BME280;23794;48.234;8.344;2023-05-01T00:38:36;94171.97;;;8.18;72.09
37972;BME280;23794;48.234;8.344;2023-05-01T00:41:03;94168.47;;;8.21;71.37
37972;BME280;23794;48.234;8.344;2023-05-01T00:43:30;94159.50;;;8.20;71.22
37972;BME280;23794;48.234;8.344;2023-05-01T00:45:56;94161.06;;;8.22;71.54
37972;BME280;23794;48.234;8.344;2023-05-01T00:48:24;94161.44;;;8.13;72.31
37972;BME280;23794;48.234;8.344;2023-05-01T00:50:51;94165.34;;;8.15;73.28
37972;BME280;23794;48.234;8.344;2023-05-01T00:53:20;94160.28;;;8.14;73.36
37972;BME280;23794;48.234;8.344;2023-05-01T00:55:47;94154.84;;;8.25;71.77
37972;BME280;23794;48.234;8.344;2023-05-01T00:58:16;94152.88;;;8.25;71.95
37972;BME280;23794;48.234;8.344;2023-05-01T01:00:43;94151.28;;;8.17;72.48
37972;BME280;23794;48.234;8.344;2023-05-01T01:03:09;94146.59;;;8.10;73.49
37972;BME280;23794;48.234;8.344;2023-05-01T01:05:43;94140.41;;;8.24;73.20
37972;BME280;23794;48.234;8.344;2023-05-01T01:08:29;94135.72;;;8.21;73.38
37972;BME280;23794;48.234;8.344;2023-05-01T01:13:57;94133.78;;;8.29;71.90
37972;BME280;23794;48.234;8.344;2023-05-01T01:19:47;94124.00;;;8.17;72.87
37972;BME280;23794;48.234;8.344;2023-05-01T01:22:21;94122.84;;;8.14;73.63
37972;BME280;23794;48.234;8.344;2023-05-01T01:30:55;94121.69;;;8.19;72.09
37972;BME280;23794;48.234;8.344;2023-05-01T01:33:53;94117.78;;;8.20;71.82
37972;BME280;23794;48.234;8.344;2023-05-01T01:39:15;94118.16;;;8.11;72.22
37972;BME280;23794;48.234;8.344;2023-05-01T01:41:50;94112.31;;;8.06;73.20
37972;BME280;23794;48.234;8.344;2023-05-01T01:44:27;94109.19;;;8.14;73.47
37972;BME280;23794;48.234;8.344;2023-05-01T01:46:57;94112.69;;;8.15;73.96
37972;BME280;23794;48.234;8.344;2023-05-01T01:49:26;94114.66;;;8.07;74.30
37972;BME280;23794;48.234;8.344;2023-05-01T01:51:55;94115.81;;;8.10;73.86
37972;BME280;23794;48.234;8.344;2023-05-01T01:54:29;94118.53;;;8.10;73.98
37972;BME280;23794;48.234;8.344;2023-05-01T01:56:58;94105.31;;;8.15;73.04
37972;BME280;23794;48.234;8.344;2023-05-01T01:59:30;94106.47;;;8.14;72.91
37972;BME280;23794;48.234;8.344;2023-05-01T02:02:01;94111.53;;;8.09;73.74
37972;BME280;23794;48.234;8.344;2023-05-01T02:04:29;94106.88;;;8.09;73.62
37972;BME280;23794;48.234;8.344;2023-05-01T02:06:57;94101.00;;;8.11;73.67
37972;BME280;23794;48.234;8.344;2023-05-01T02:09:27;94099.47;;;8.20;72.67
37972;BME280;23794;48.234;8.344;2023-05-01T02:11:53;94102.97;;;8.17;73.05
37972;BME280;23794;48.234;8.344;2023-05-01T02:14:24;94098.69;;;8.16;73.00
37972;BME280;23794;48.234;8.344;2023-05-01T02:16:51;94094.81;;;8.25;71.96
37972;BME280;23794;48.234;8.344;2023-05-01T02:19:19;94092.84;;;8.14;73.31
37972;BME280;23794;48.234;8.344;2023-05-01T02:21:47;94095.16;;;8.09;74.02
37972;BME280;23794;48.234;8.344;2023-05-01T02:24:15;94087.38;;;8.11;74.28
37972;BME280;23794;48.234;8.344;2023-05-01T02:26:48;94089.34;;;8.17;73.87
37972;BME280;23794;48.234;8.344;2023-05-01T02:29:15;94095.56;;;8.14;73.95
37972;BME280;23794;48.234;8.344;2023-05-01T02:31:42;94092.44;;;8.09;73.47
37972;BME280;23794;48.234;8.344;2023-05-01T02:34:09;94091.66;;;8.19;72.75
37972;BME280;23794;48.234;8.344;2023-05-01T02:36:35;94088.16;;;8.18;73.25
37972;BME280;23794;48.234;8.344;2023-05-01T02:39:03;94077.63;;;8.13;73.42
37972;BME280;23794;48.234;8.344;2023-05-01T02:41:31;94077.63;;;8.06;74.25
37972;BME280;23794;48.234;8.344;2023-05-01T02:44:03;94083.47;;;8.15;73.48
37972;BME280;23794;48.234;8.344;2023-05-01T02:46:34;94078.44;;;8.17;73.14
37972;BME280;23794;48.234;8.344;2023-05-01T02:49:02;94075.69;;;8.14;73.81
37972;BME280;23794;48.234;8.344;2023-05-01T02:51:30;94081.16;;;8.14;73.65
37972;BME280;23794;48.234;8.344;2023-05-01T02:53:58;94073.72;;;8.14;73.92
37972;BME280;23794;48.234;8.344;2023-05-01T02:56:25;94074.91;;;8.13;73.95
37972;BME280;23794;48.234;8.344;2023-05-01T02:58:53;94073.31;;;8.09;74.07
37972;BME280;23794;48.234;8.344;2023-05-01T03:01:20;94067.09;;;8.04;74.10
37972;BME280;23794;48.234;8.344;2023-05-01T03:03:47;94061.66;;;8.19;73.13
37972;BME280;23794;48.234;8.344;2023-05-01T03:06:13;94059.31;;;8.28;72.70
37972;BME280;23794;48.234;8.344;2023-05-01T03:08:40;94051.50;;;8.27;73.20
37972;BME280;23794;48.234;8.344;2023-05-01T03:11:07;94056.59;;;8.21;74.07
37972;BME280;23794;48.234;8.344;2023-05-01T03:13:34;94052.31;;;8.16;74.89
37972;BME280;23794;48.234;8.344;2023-05-01T03:16:01;94052.31;;;8.13;74.67
37972;BME280;23794;48.234;8.344;2023-05-01T03:18:27;94054.63;;;8.14;75.21
37972;BME280;23794;48.234;8.344;2023-05-01T03:20:55;94042.16;;;8.13;75.01
37972;BME280;23794;48.234;8.344;2023-05-01T03:23:26;94046.06;;;8.16;74.49
37972;BME280;23794;48.234;8.344;2023-05-01T03:25:53;94041.38;;;8.09;75.18
37972;BME280;23794;48.234;8.344;2023-05-01T03:28:20;94046.84;;;8.09;75.04
37972;BME280;23794;48.234;8.344;2023-05-01T03:30:51;94044.50;;;8.18;73.92
37972;BME280;23794;48.234;8.344;2023-05-01T03:33:18;94051.09;;;8.10;74.80
37972;BME280;23794;48.234;8.344;2023-05-01T03:35:45;94048.78;;;8.09;74.91
37972;BME280;23794;48.234;8.344;2023-05-01T03:38:12;94041.00;;;8.07;75.47
37972;BME280;23794;48.234;8.344;2023-05-01T03:40:58;94048.41;;;8.14;74.31
37972;BME280;23794;48.234;8.344;2023-05-01T03:43:57;94044.13;;;8.24;73.74
37972;BME280;23794;48.234;8.344;2023-05-01T03:46:37;94048.00;;;8.15;73.38
37972;BME280;23794;48.234;8.344;2023-05-01T03:49:05;94045.28;;;8.12;73.90
37972;BME280;23794;48.234;8.344;2023-05-01T03:51:38;94046.44;;;8.14;73.30
37972;BME280;23794;48.234;8.344;2023-05-01T03:54:05;94047.63;;;8.17;73.29
37972;BME280;23794;48.234;8.344;2023-05-01T03:56:45;94052.31;;;8.13;75.13
37972;BME280;23794;48.234;8.344;2023-05-01T03:59:11;94046.06;;;8.09;75.66
37972;BME280;23794;48.234;8.344;2023-05-01T04:01:39;94046.06;;;8.09;76.13
37972;BME280;23794;48.234;8.344;2023-05-01T04:04:06;94037.88;;;8.05;76.17
37972;BME280;23794;48.234;8.344;2023-05-01T04:06:40;94038.25;;;8.14;75.58
37972;BME280;23794;48.234;8.344;2023-05-01T04:09:07;94045.28;;;8.08;75.93
37972;BME280;23794;48.234;8.344;2023-05-01T04:11:33;94043.72;;;8.18;74.85
37972;BME280;23794;48.234;8.344;2023-05-01T04:14:00;94046.06;;;8.19;74.28
37972;BME280;23794;48.234;8.344;2023-05-01T04:16:27;94041.75;;;8.15;75.25
37972;BME280;23794;48.234;8.344;2023-05-01T04:18:53;94049.19;;;8.07;76.14
37972;BME280;23794;48.234;8.344;2023-05-01T04:21:21;94042.56;;;8.15;75.30
37972;BME280;23794;48.234;8.344;2023-05-01T04:23:50;94044.50;;;8.22;74.75
37972;BME280;23794;48.234;8.344;2023-05-01T04:26:17;94049.56;;;8.16;75.64
37972;BME280;23794;48.234;8.344;2023-05-01T04:28:43;94053.84;;;8.10;76.30
37972;BME280;23794;48.234;8.344;2023-05-01T04:31:13;94051.13;;;8.14;75.47
37972;BME280;23794;48.234;8.344;2023-05-01T04:33:39;94055.81;;;8.24;75.64
37972;BME280;23794;48.234;8.344;2023-05-01T04:36:06;94058.94;;;8.33;75.09
37972;BME280;23794;48.234;8.344;2023-05-01T04:38:33;94059.69;;;8.41;74.95
37972;BME280;23794;48.234;8.344;2023-05-01T04:41:04;94055.44;;;8.44;74.89
37972;BME280;23794;48.234;8.344;2023-05-01T04:43:31;94064.38;;;8.44;74.66
37972;BME280;23794;48.234;8.344;2023-05-01T04:45:58;94065.16;;;8.41;75.05
37972;BME280;23794;48.234;8.344;2023-05-01T04:48:25;94067.50;;;8.39;75.53
37972;BME280;23794;48.234;8.344;2023-05-01T04:50:52;94064.00;;;8.35;75.17
37972;BME280;23794;48.234;8.344;2023-05-01T04:53:19;94069.06;;;8.44;74.46
37972;BME280;23794;48.234;8.344;2023-05-01T04:55:45;94064.38;;;8.44;75.23
37972;BME280;23794;48.234;8.344;2023-05-01T04:58:14;94060.88;;;8.44;75.48
37972;BME280;23794;48.234;8.344;2023-05-01T05:00:43;94071.00;;;8.47;74.62
37972;BME280;23794;48.234;8.344;2023-05-01T05:03:16;94069.44;;;8.39;76.56
37972;BME280;23794;48.234;8.344;2023-05-01T05:05:44;94073.34;;;8.27;78.35
37972;BME280;23794;48.234;8.344;2023-05-01T05:08:11;94075.69;;;8.25;78.87
37972;BME280;23794;48.234;8.344;2023-05-01T05:10:42;94072.97;;;8.32;78.80
37972;BME280;23794;48.234;8.344;2023-05-01T05:13:32;94071.00;;;8.40;78.42
37972;BME280;23794;48.234;8.344;2023-05-01T05:16:01;94079.59;;;8.38;78.94
37972;BME280;23794;48.234;8.344;2023-05-01T05:18:28;94075.31;;;8.44;78.67
37972;BME280;23794;48.234;8.344;2023-05-01T05:20:56;94075.69;;;8.61;77.38
37972;BME280;23794;48.234;8.344;2023-05-01T05:23:23;94072.16;;;8.67;77.74
37972;BME280;23794;48.234;8.344;2023-05-01T05:25:50;94066.31;;;8.69;77.06
37972;BME280;23794;48.234;8.344;2023-05-01T05:28:18;94071.00;;;8.61;77.88
37972;BME280;23794;48.234;8.344;2023-05-01T05:30:44;94067.88;;;8.59;76.98
37972;BME280;23794;48.234;8.344;2023-05-01T05:33:15;94081.16;;;8.43;78.14
37972;BME280;23794;48.234;8.344;2023-05-01T05:35:41;94078.44;;;8.54;77.00
37972;BME280;23794;48.234;8.344;2023-05-01T05:38:08;94072.56;;;8.62;76.41
37972;BME280;23794;48.234;8.344;2023-05-01T05:40:38;94080.00;;;8.62;77.47
37972;BME280;23794;48.234;8.344;2023-05-01T05:43:05;94078.41;;;8.64;78.74
37972;BME280;23794;48.234;8.344;2023-05-01T05:45:36;94082.31;;;8.78;78.64
37972;BME280;23794;48.234;8.344;2023-05-01T05:48:03;94077.22;;;8.83;78.18
37972;BME280;23794;48.234;8.344;2023-05-01T05:50:32;94080.72;;;8.88;77.13
37972;BME280;23794;48.234;8.344;2023-05-01T05:52:59;94080.34;;;8.86;77.52
37972;BME280;23794;48.234;8.344;2023-05-01T05:55:26;94080.34;;;8.89;77.93
37972;BME280;23794;48.234;8.344;2023-05-01T05:58:03;94079.53;;;8.92;78.09
37972;BME280;23794;48.234;8.344;2023-05-01T06:00:30;94076.78;;;9.03;78.18
37972;BME280;23794;48.234;8.344;2023-05-01T06:03:01;94084.97;;;9.10;77.51
37972;BME280;23794;48.234;8.344;2023-05-01T06:05:29;94079.06;;;9.30;77.27
37972;BME280;23794;48.234;8.344;2023-05-01T06:07:56;94080.97;;;9.44;76.69
37972;BME280;23794;48.234;8.344;2023-05-01T06:10:23;94074.75;;;9.43;77.01
37972;BME280;23794;48.234;8.344;2023-05-01T06:12:49;94070.81;;;9.52;76.28
37972;BME280;23794;48.234;8.344;2023-05-01T06:15:35;94066.56;;;9.43;76.60
37972;BME280;23794;48.234;8.344;2023-05-01T06:18:03;94078.63;;;9.53;76.81
37972;BME280;23794;48.234;8.344;2023-05-01T06:20:31;94072.44;;;9.38;76.59
37972;BME280;23794;48.234;8.344;2023-05-01T06:22:58;94070.88;;;9.30;76.77
37972;BME280;23794;48.234;8.344;2023-05-01T06:25:31;94063.81;;;9.43;77.22
37972;BME280;23794;48.234;8.344;2023-05-01T06:27:58;94074.72;;;9.54;76.57
37972;BME280;23794;48.234;8.344;2023-05-01T06:30:25;94069.25;;;9.51;75.14
37972;BME280;23794;48.234;8.344;2023-05-01T06:32:52;94070.00;;;9.55;75.19
37972;BME280;23794;48.234;8.344;2023-05-01T06:35:20;94074.66;;;9.61;74.60
37972;BME280;23794;48.234;8.344;2023-05-01T06:37:48;94074.22;;;9.70;75.78
37972;BME280;23794;48.234;8.344;2023-05-01T06:40:15;94073.44;;;9.77;75.79
37972;BME280;23794;48.234;8.344;2023-05-01T06:42:41;94073.31;;;9.95;75.57
37972;BME280;23794;48.234;8.344;2023-05-01T06:45:08;94071.31;;;10.03;75.74
37972;BME280;23794;48.234;8.344;2023-05-01T06:47:35;94077.84;;;10.23;74.99
37972;BME280;23794;48.234;8.344;2023-05-01T06:50:02;94073.78;;;10.43;74.11
37972;BME280;23794;48.234;8.344;2023-05-01T06:52:32;94071.41;;;10.45;73.27
37972;BME280;23794;48.234;8.344;2023-05-01T06:54:58;94075.59;;;10.60;73.19
37972;BME280;23794;48.234;8.344;2023-05-01T06:57:25;94073.09;;;10.77;73.49
37972;BME280;23794;48.234;8.344;2023-05-01T06:59:52;94069.13;;;10.85;72.04
37972;BME280;23794;48.234;8.344;2023-05-01T07:02:19;94076.47;;;10.99;72.22
37972;BME280;23794;48.234;8.344;2023-05-01T07:04:46;94084.34;;;10.89;72.43
37972;BME280;23794;48.234;8.344;2023-05-01T07:07:13;94078.00;;;11.03;71.93
37972;BME280;23794;48.234;8.344;2023-05-01T07:09:40;94069.91;;;11.27;72.04
37972;BME280;23794;48.234;8.344;2023-05-01T07:12:07;94071.78;;;11.34;70.60
37972;BME280;23794;48.234;8.344;2023-05-01T07:14:34;94074.53;;;11.34;71.22
37972;BME280;23794;48.234;8.344;2023-05-01T07:17:02;94080.00;;;11.34;71.87
37972;BME280;23794;48.234;8.344;2023-05-01T07:19:29;94077.97;;;11.42;72.04
37972;BME280;23794;48.234;8.344;2023-05-01T07:21:55;94075.88;;;11.53;71.63
37972;BME280;23794;48.234;8.344;2023-05-01T07:24:22;94076.63;;;11.57;72.49
37972;BME280;23794;48.234;8.344;2023-05-01T07:26:49;94078.56;;;11.57;71.62
37972;BME280;23794;48.234;8.344;2023-05-01T07:29:15;94075.75;;;11.29;71.98
37972;BME280;23794;48.234;8.344;2023-05-01T07:31:43;94079.88;;;11.10;72.26
37972;BME280;23794;48.234;8.344;2023-05-01T07:34:09;94071.75;;;10.96;73.17
37972;BME280;23794;48.234;8.344;2023-05-01T07:36:37;94067.06;;;10.96;73.38
37972;BME280;23794;48.234;8.344;2023-05-01T07:39:04;94069.44;;;10.98;73.61
37972;BME280;23794;48.234;8.344;2023-05-01T07:41:32;94074.91;;;10.94;73.57
37972;BME280;23794;48.234;8.344;2023-05-01T07:43:58;94072.16;;;10.94;74.22
37972;BME280;23794;48.234;8.344;2023-05-01T07:46:25;94071.38;;;10.94;74.32
37972;BME280;23794;48.234;8.344;2023-05-01T07:48:52;94073.00;;;10.87;73.93
37972;BME280;23794;48.234;8.344;2023-05-01T07:51:19;94069.88;;;10.89;74.07
37972;BME280;23794;48.234;8.344;2023-05-01T07:53:46;94072.22;;;10.91;74.51
37972;BME280;23794;48.234;8.344;2023-05-01T07:56:14;94071.06;;;10.88;73.80
37972;BME280;23794;48.234;8.344;2023-05-01T07:58:41;94070.47;;;11.11;74.16
37972;BME280;23794;48.234;8.344;2023-05-01T08:01:09;94069.03;;;11.34;73.06
37972;BME280;23794;48.234;8.344;2023-05-01T08:03:36;94068.59;;;11.39;71.49
37972;BME280;23794;48.234;8.344;2023-05-01T08:06:03;94071.09;;;11.61;71.64
37972;BME280;23794;48.234;8.344;2023-05-01T08:08:29;94070.88;;;11.79;70.59
37972;BME280;23794;48.234;8.344;2023-05-01T08:10:56;94079.66;;;11.94;70.11
37972;BME280;23794;48.234;8.344;2023-05-01T08:13:23;94078.75;;;12.04;69.72
37972;BME280;23794;48.234;8.344;2023-05-01T08:15:49;94087.09;;;11.97;70.17
37972;BME280;23794;48.234;8.344;2023-05-01T08:18:16;94086.25;;;12.00;69.77
37972;BME280;23794;48.234;8.344;2023-05-01T08:20:47;94079.47;;;12.08;68.15
37972;BME280;23794;48.234;8.344;2023-05-01T08:23:15;94077.81;;;12.14;69.60
37972;BME280;23794;48.234;8.344;2023-05-01T08:25:42;94080.63;;;12.38;68.52
37972;BME280;23794;48.234;8.344;2023-05-01T08:28:08;94083.78;;;12.37;67.42
37972;BME280;23794;48.234;8.344;2023-05-01T08:30:35;94078.22;;;12.44;68.11
37972;BME280;23794;48.234;8.344;2023-05-01T08:33:02;94083.53;;;12.55;67.20
37972;BME280;23794;48.234;8.344;2023-05-01T08:35:29;94078.94;;;12.48;67.38
37972;BME280;23794;48.234;8.344;2023-05-01T08:37:55;94084.97;;;12.36;67.21
37972;BME280;23794;48.234;8.344;2023-05-01T08:40:24;94077.88;;;12.38;66.74
37972;BME280;23794;48.234;8.344;2023-05-01T08:42:52;94079.75;;;12.45;67.33
37972;BME280;23794;48.234;8.344;2023-05-01T08:45:22;94078.03;;;12.27;66.25
37972;BME280;23794;48.234;8.344;2023-05-01T08:47:50;94069.16;;;12.47;66.14
37972;BME280;23794;48.234;8.344;2023-05-01T08:50:18;94069.75;;;12.82;66.50
37972;BME280;23794;48.234;8.344;2023-05-01T08:52:46;94068.59;;;13.03;65.74
37972;BME280;23794;48.234;8.344;2023-05-01T08:55:14;94067.28;;;13.12;65.09
37972;BME280;23794;48.234;8.344;2023-05-01T08:57:44;94070.75;;;12.92;64.58
37972;BME280;23794;48.234;8.344;2023-05-01T09:00:17;94071.72;;;12.82;65.28
37972;BME280;23794;48.234;8.344;2023-05-01T09:02:48;94070.31;;;12.93;65.37
37972;BME280;23794;48.234;8.344;2023-05-01T09:05:19;94074.56;;;12.98;64.19
37972;BME280;23794;48.234;8.344;2023-05-01T09:07:46;94077.78;;;13.17;64.75
37972;BME280;23794;48.234;8.344;2023-05-01T09:10:17;94072.78;;;13.32;63.56
37972;BME280;23794;48.234;8.344;2023-05-01T09:12:50;94074.00;;;13.31;64.07
37972;BME280;23794;48.234;8.344;2023-05-01T09:15:18;94074.06;;;13.47;64.33
37972;BME280;23794;48.234;8.344;2023-05-01T09:17:45;94074.56;;;13.62;63.31
37972;BME280;23794;48.234;8.344;2023-05-01T09:20:12;94073.09;;;13.78;62.66
37972;BME280;23794;48.234;8.344;2023-05-01T09:22:39;94077.59;;;13.88;62.47
37972;BME280;23794;48.234;8.344;2023-05-01T09:25:06;94072.81;;;13.92;62.59
37972;BME280;23794;48.234;8.344;2023-05-01T09:27:34;94089.84;;;13.87;61.80
37972;BME280;23794;48.234;8.344;2023-05-01T09:30:01;94080.34;;;13.88;61.25
37972;BME280;23794;48.234;8.344;2023-05-01T09:32:28;94073.81;;;13.82;60.34
37972;BME280;23794;48.234;8.344;2023-05-01T09:35:08;94078.72;;;13.50;59.92
37972;BME280;23794;48.234;8.344;2023-05-01T09:37:35;94081.69;;;13.39;60.59
37972;BME280;23794;48.234;8.344;2023-05-01T09:42:33;94086.78;;;12.97;62.54
37972;BME280;23794;48.234;8.344;2023-05-01T09:45:00;94086.53;;;13.12;62.43
37972;BME280;23794;48.234;8.344;2023-05-01T09:47:29;94083.41;;;13.09;63.41
37972;BME280;23794;48.234;8.344;2023-05-01T09:49:56;94085.13;;;13.23;62.31
37972;BME280;23794;48.234;8.344;2023-05-01T09:52:27;94086.91;;;13.34;62.74
37972;BME280;23794;48.234;8.344;2023-05-01T09:55:13;94078.03;;;13.46;60.31
37972;BME280;23794;48.234;8.344;2023-05-01T09:57:40;94086.41;;;13.59;61.44
37972;BME280;23794;48.234;8.344;2023-05-01T10:00:13;94091.44;;;13.44;60.37
37972;BME280;23794;48.234;8.344;2023-05-01T10:02:43;94092.91;;;13.49;60.14
37972;BME280;23794;48.234;8.344;2023-05-01T10:05:11;94085.44;;;13.49;58.93
37972;BME280;23794;48.234;8.344;2023-05-01T10:07:38;94092.00;;;13.55;59.13
37972;BME280;23794;48.234;8.344;2023-05-01T10:10:18;94085.31;;;13.77;59.43
37972;BME280;23794;48.234;8.344;2023-05-01T10:12:47;94091.66;;;13.73;59.34
37972;BME280;23794;48.234;8.344;2023-05-01T10:15:14;94082.72;;;13.69;59.75
37972;BME280;23794;48.234;8.344;2023-05-01T10:17:51;94080.09;;;13.82;59.90
37972;BME280;23794;48.234;8.344;2023-05-01T10:20:19;94081.66;;;14.20;59.63
37972;BME280;23794;48.234;8.344;2023-05-01T10:22:46;94085.13;;;14.57;57.95
37972;BME280;23794;48.234;8.344;2023-05-01T10:25:16;94081.66;;;14.90;57.25
37972;BME280;23794;48.234;8.344;2023-05-01T10:27:43;94083.09;;;14.61;56.82
37972;BME280;23794;48.234;8.344;2023-05-01T10:30:10;94085.72;;;14.32;56.62
37972;BME280;23794;48.234;8.344;2023-05-01T10:32:37;94080.03;;;14.39;57.08
37972;BME280;23794;48.234;8.344;2023-05-01T10:35:18;94078.63;;;14.84;55.73
37972;BME280;23794;48.234;8.344;2023-05-01T10:37:48;94071.03;;;15.05;53.94
37972;BME280;23794;48.234;8.344;2023-05-01T10:45:39;94062.25;;;15.39;52.81
37972;BME280;23794;48.234;8.344;2023-05-01T10:48:05;94058.53;;;15.46;52.92
37972;BME280;23794;48.234;8.344;2023-05-01T10:50:33;94057.97;;;15.51;52.32
37972;BME280;23794;48.234;8.344;2023-05-01T10:55:38;94059.75;;;15.58;50.61
37972;BME280;23794;48.234;8.344;2023-05-01T10:58:07;94052.50;;;15.77;53.18
37972;BME280;23794;48.234;8.344;2023-05-01T11:00:33;94052.97;;;15.88;51.47
37972;BME280;23794;48.234;8.344;2023-05-01T11:08:35;94047.63;;;15.98;49.54
37972;BME280;23794;48.234;8.344;2023-05-01T11:22:11;94028.13;;;17.27;43.20
37972;BME280;23794;48.234;8.344;2023-05-01T11:24:38;94028.59;;;17.92;42.81
37972;BME280;23794;48.234;8.344;2023-05-01T11:27:05;94024.44;;;18.28;42.63
37972;BME280;23794;48.234;8.344;2023-05-01T11:29:32;94021.19;;;18.20;39.55
37972;BME280;23794;48.234;8.344;2023-05-01T11:32:02;94018.31;;;18.33;39.86
37972;BME280;23794;48.234;8.344;2023-05-01T11:34:34;94030.22;;;17.58;43.67
37972;BME280;23794;48.234;8.344;2023-05-01T11:37:02;94025.56;;;16.97;43.81
37972;BME280;23794;48.234;8.344;2023-05-01T11:39:29;94021.56;;;17.33;44.03
37972;BME280;23794;48.234;8.344;2023-05-01T11:42:07;94023.03;;;17.92;44.35
37972;BME280;23794;48.234;8.344;2023-05-01T11:44:35;94021.38;;;18.26;41.93
37972;BME280;23794;48.234;8.344;2023-05-01T11:47:02;94021.13;;;18.11;40.96
37972;BME280;23794;48.234;8.344;2023-05-01T11:49:29;94025.69;;;17.51;40.43
37972;BME280;23794;48.234;8.344;2023-05-01T11:51:56;94024.50;;;17.17;40.82
37972;BME280;23794;48.234;8.344;2023-05-01T11:54:26;94030.78;;;16.82;43.52
37972;BME280;23794;48.234;8.344;2023-05-01T11:56:59;94017.13;;;17.01;42.50
37972;BME280;23794;48.234;8.344;2023-05-01T11:59:26;94018.34;;;17.35;41.89
37972;BME280;23794;48.234;8.344;2023-05-01T12:01:53;94012.75;;;17.70;41.01
37972;BME280;23794;48.234;8.344;2023-05-01T12:04:26;94008.22;;;17.85;39.73
37972;BME280;23794;48.234;8.344;2023-05-01T12:06:57;94013.75;;;17.63;41.05
37972;BME280;23794;48.234;8.344;2023-05-01T12:09:25;94011.38;;;17.75;40.17
37972;BME280;23794;48.234;8.344;2023-05-01T12:11:53;94008.81;;;17.36;41.84
37972;BME280;23794;48.234;8.344;2023-05-01T12:14:20;94013.06;;;17.50;41.79
37972;BME280;23794;48.234;8.344;2023-05-01T12:16:47;94003.66;;;17.47;41.62
37972;BME280;23794;48.234;8.344;2023-05-01T12:19:15;94007.97;;;17.26;41.97
37972;BME280;23794;48.234;8.344;2023-05-01T12:21:43;94012.22;;;17.40;42.75
37972;BME280;23794;48.234;8.344;2023-05-01T12:24:11;94015.47;;;17.39;42.25
37972;BME280;23794;48.234;8.344;2023-05-01T12:26:40;94013.19;;;17.46;42.42
37972;BME280;23794;48.234;8.344;2023-05-01T12:29:08;94010.16;;;17.53;42.90
37972;BME280;23794;48.234;8.344;2023-05-01T12:31:35;94011.50;;;17.93;42.94
37972;BME280;23794;48.234;8.344;2023-05-01T12:34:03;94009.28;;;18.10;42.09
37972;BME280;23794;48.234;8.344;2023-05-01T12:36:32;94006.66;;;18.07;39.58
37972;BME280;23794;48.234;8.344;2023-05-01T12:39:04;94016.31;;;17.80;40.50
37972;BME280;23794;48.234;8.344;2023-05-01T12:41:42;94020.25;;;17.69;40.46
37972;BME280;23794;48.234;8.344;2023-05-01T12:44:26;94016.94;;;17.30;40.21
37972;BME280;23794;48.234;8.344;2023-05-01T12:47:04;94013.63;;;17.00;41.63
37972;BME280;23794;48.234;8.344;2023-05-01T12:49:32;94014.59;;;17.07;42.72
37972;BME280;23794;48.234;8.344;2023-05-01T12:52:00;94015.81;;;17.05;42.01
37972;BME280;23794;48.234;8.344;2023-05-01T12:57:09;94018.47;;;16.83;43.83
37972;BME280;23794;48.234;8.344;2023-05-01T12:59:37;94013.31;;;16.72;43.70
37972;BME280;23794;48.234;8.344;2023-05-01T13:02:11;94015.88;;;16.67;43.72
37972;BME280;23794;48.234;8.344;2023-05-01T13:04:42;94016.88;;;16.47;44.84
37972;BME280;23794;48.234;8.344;2023-05-01T13:07:13;94020.88;;;16.07;45.50
37972;BME280;23794;48.234;8.344;2023-05-01T13:09:51;94024.84;;;16.06;48.18
37972;BME280;23794;48.234;8.344;2023-05-01T13:12:20;94020.78;;;16.37;48.41
37972;BME280;23794;48.234;8.344;2023-05-01T13:14:46;94008.00;;;16.78;46.36
37972;BME280;23794;48.234;8.344;2023-05-01T13:17:22;94002.78;;;17.50;44.19
37972;BME280;23794;48.234;8.344;2023-05-01T13:19:59;93996.97;;;18.61;41.89
37972;BME280;23794;48.234;8.344;2023-05-01T13:22:36;93999.63;;;18.74;41.98
37972;BME280;23794;48.234;8.344;2023-05-01T13:25:18;93990.28;;;18.31;42.01
37972;BME280;23794;48.234;8.344;2023-05-01T13:27:47;94010.69;;;17.61;43.56
37972;BME280;23794;48.234;8.344;2023-05-01T13:30:19;94013.38;;;16.95;45.10
37972;BME280;23794;48.234;8.344;2023-05-01T13:32:47;94021.75;;;16.17;47.53
37972;BME280;23794;48.234;8.344;2023-05-01T13:35:25;94023.22;;;15.67;50.62
37972;BME280;23794;48.234;8.344;2023-05-01T13:37:52;94028.56;;;15.44;54.34
37972;BME280;23794;48.234;8.344;2023-05-01T13:40:19;94033.28;;;15.31;53.53
37972;BME280;23794;48.234;8.344;2023-05-01T13:42:50;94026.88;;;15.63;55.19
37972;BME280;23794;48.234;8.344;2023-05-01T13:45:18;94037.38;;;15.82;56.31
37972;BME280;23794;48.234;8.344;2023-05-01T13:47:45;94031.16;;;15.94;52.78
37972;BME280;23794;48.234;8.344;2023-05-01T13:50:14;94033.19;;;15.90;51.29
37972;BME280;23794;48.234;8.344;2023-05-01T13:52:44;94037.53;;;15.91;51.30
37972;BME280;23794;48.234;8.344;2023-05-01T13:55:11;94043.75;;;15.23;50.58
37972;BME280;23794;48.234;8.344;2023-05-01T13:57:39;94044.25;;;14.89;50.33
37972;BME280;23794;48.234;8.344;2023-05-01T14:00:08;94054.72;;;14.77;49.93